Time;durP1;ratioP1;P1;durP2;ratioP2;P2;SDS_P1;SDS_P2;PMS_P1;PMS_P2;Temp;Humidity;BMP_temperature;BMP_pressure;BME280_temperature;BME280_humidity;BME280_pressure;Samples;Min_cycle;Max_cycle;Signal;HPM_P1;HPM_P2
2021/12/03 01:43:43;;;;;;;8.83;4.93;;;-0.40;99.90;;;;;;5356099;23;20522;-95
2021/12/03 01:46:11;;;;;;;7.90;4.80;;;-0.40;99.90;;;;;;4912237;29;20237;-93
2021/12/03 01:48:38;;;;;;;8.17;5.23;;;-0.40;99.90;;;;;;4903836;29;20195;-95
2021/12/03 01:51:05;;;;;;;8.27;5.73;;;-0.40;99.90;;;;;;4903889;29;20292;-95
2021/12/03 01:53:34;;;;;;;9.70;5.53;;;-0.40;99.90;;;;;;4903715;29;20190;-93
2021/12/03 01:56:06;;;;;;;10.00;6.17;;;-0.40;99.90;;;;;;4903071;29;20190;-94
2021/12/03 01:58:32;;;;;;;8.97;6.07;;;-0.40;99.90;;;;;;4903815;29;20278;-94
2021/12/03 02:01:08;;;;;;;8.57;6.13;;;-0.40;99.90;;;;;;4903711;29;20269;-95
2021/12/03 02:03:35;;;;;;;8.23;6.43;;;-0.40;99.90;;;;;;4903927;29;20184;-94
2021/12/03 02:06:05;;;;;;;9.60;6.47;;;-0.40;99.90;;;;;;4903463;29;20710;-94
2021/12/03 02:08:31;;;;;;;11.60;7.00;;;-0.40;99.90;;;;;;4903572;29;20187;-94
2021/12/03 02:10:57;;;;;;;10.73;6.97;;;-0.40;99.90;;;;;;4903367;29;20753;-94
2021/12/03 02:13:23;;;;;;;9.97;6.53;;;-0.40;99.90;;;;;;4903375;29;20326;-94
2021/12/03 02:15:51;;;;;;;14.47;6.73;;;-0.40;99.90;;;;;;4920884;29;20288;-95
2021/12/03 02:18:17;;;;;;;10.43;6.93;;;-0.40;99.90;;;;;;4922176;29;20228;-94
2021/12/03 02:20:47;;;;;;;11.13;6.90;;;-0.40;99.90;;;;;;4922137;29;20192;-94
2021/12/03 02:23:15;;;;;;;10.20;6.37;;;-0.40;99.90;;;;;;4922496;29;20692;-94
2021/12/03 02:25:56;;;;;;;11.03;7.10;;;-0.50;99.90;;;;;;4922034;29;20194;-95
2021/12/03 02:28:25;;;;;;;10.90;6.67;;;-0.50;99.90;;;;;;4921513;29;20194;-95
2021/12/03 02:30:52;;;;;;;11.77;6.57;;;-0.40;99.90;;;;;;4938574;29;20229;-95
2021/12/03 02:33:18;;;;;;;9.93;6.13;;;-0.40;99.90;;;;;;4922223;29;20214;-94
2021/12/03 02:35:45;;;;;;;10.90;6.10;;;-0.40;99.90;;;;;;4922085;29;20186;-94
2021/12/03 02:38:14;;;;;;;10.17;5.90;;;-0.40;99.90;;;;;;4938750;29;20252;-94
2021/12/03 02:40:40;;;;;;;10.93;6.53;;;-0.50;99.90;;;;;;4921942;29;20190;-95
2021/12/03 02:43:06;;;;;;;9.67;6.27;;;-0.50;99.90;;;;;;4921775;29;20244;-94
2021/12/03 02:45:34;;;;;;;10.33;6.17;;;-0.50;99.90;;;;;;4905690;29;20261;-96
2021/12/03 02:48:02;;;;;;;13.27;6.60;;;-0.50;99.90;;;;;;4902885;29;20618;-95
2021/12/03 02:50:28;;;;;;;10.47;6.47;;;-0.50;99.90;;;;;;4902612;29;20592;-94
2021/12/03 02:52:54;;;;;;;10.87;7.07;;;-0.60;99.90;;;;;;4919574;29;20238;-95
2021/12/03 02:55:22;;;;;;;10.93;6.13;;;-0.50;99.90;;;;;;4902756;29;20222;-94
2021/12/03 02:57:48;;;;;;;11.63;7.00;;;-0.50;99.90;;;;;;4902038;29;20198;-93
2021/12/03 03:00:16;;;;;;;12.17;7.00;;;-0.50;99.90;;;;;;4902579;29;20249;-94
2021/12/03 03:02:43;;;;;;;10.43;6.57;;;-0.50;99.90;;;;;;4902461;29;20190;-95
2021/12/03 03:05:11;;;;;;;9.97;6.40;;;-0.60;99.90;;;;;;4902505;29;20220;-94
2021/12/03 03:07:40;;;;;;;13.97;7.10;;;-0.50;99.90;;;;;;4902402;29;20999;-95
2021/12/03 03:10:10;;;;;;;12.00;6.70;;;-0.50;99.90;;;;;;4902428;29;20221;-94
2021/12/03 03:12:37;;;;;;;10.27;6.23;;;-0.50;99.90;;;;;;4901983;29;20708;-94
2021/12/03 03:15:03;;;;;;;12.03;5.87;;;-0.50;99.90;;;;;;4902176;29;20320;-94
2021/12/03 03:17:31;;;;;;;10.73;6.50;;;-0.60;99.90;;;;;;4902195;29;20205;-94
2021/12/03 03:19:59;;;;;;;14.67;7.00;;;-0.50;99.90;;;;;;4902441;29;20187;-94
2021/12/03 03:22:26;;;;;;;10.73;6.03;;;-0.50;99.90;;;;;;4919184;29;20179;-95
2021/12/03 03:24:52;;;;;;;12.30;6.37;;;-0.50;99.90;;;;;;4902365;29;20265;-94
2021/12/03 03:27:21;;;;;;;12.03;6.77;;;-0.50;99.90;;;;;;4902082;29;20194;-94
2021/12/03 03:29:48;;;;;;;12.90;7.37;;;-0.50;99.90;;;;;;4902197;29;20195;-94
2021/12/03 03:32:15;;;;;;;13.20;7.67;;;-0.50;99.90;;;;;;4902383;29;20218;-94
2021/12/03 03:34:41;;;;;;;10.07;7.13;;;-0.50;99.90;;;;;;4919096;29;20198;-94
2021/12/03 03:37:08;;;;;;;12.10;7.43;;;-0.50;99.90;;;;;;4902123;29;20198;-94
2021/12/03 03:39:34;;;;;;;17.50;7.23;;;-0.50;99.90;;;;;;4902255;29;20602;-94
2021/12/03 03:42:00;;;;;;;13.80;7.17;;;-0.50;99.90;;;;;;4902168;29;20195;-94
2021/12/03 03:44:26;;;;;;;13.17;7.33;;;-0.50;99.90;;;;;;4901834;29;20257;-94
2021/12/03 03:46:53;;;;;;;11.13;7.10;;;-0.50;99.90;;;;;;4902093;29;20199;-94
2021/12/03 03:49:21;;;;;;;17.20;7.77;;;-0.50;99.90;;;;;;4901927;29;20222;-95
2021/12/03 03:51:47;;;;;;;15.20;8.20;;;-0.50;99.90;;;;;;4902034;29;20230;-94
2021/12/03 03:54:14;;;;;;;17.27;7.87;;;-0.50;99.90;;;;;;4902192;29;20278;-95
2021/12/03 03:56:39;;;;;;;14.20;8.20;;;-0.50;99.90;;;;;;4901680;29;20198;-94
2021/12/03 03:59:05;;;;;;;12.87;8.03;;;-0.50;99.90;;;;;;4901933;29;20187;-94
2021/12/03 04:01:31;;;;;;;15.97;7.97;;;-0.50;99.90;;;;;;4901943;29;20281;-94
2021/12/03 04:03:57;;;;;;;16.60;8.33;;;-0.50;99.90;;;;;;4902021;29;20225;-94
2021/12/03 04:06:25;;;;;;;16.47;8.53;;;-0.50;99.90;;;;;;4901801;29;20198;-94
2021/12/03 04:08:51;;;;;;;14.50;8.30;;;-0.50;99.90;;;;;;4902009;29;20526;-94
2021/12/03 04:11:20;;;;;;;13.97;8.77;;;-0.50;99.90;;;;;;4901885;29;20233;-95
2021/12/03 04:13:47;;;;;;;16.97;9.53;;;-0.50;99.90;;;;;;4902043;29;20200;-94
2021/12/03 04:16:17;;;;;;;18.60;8.57;;;-0.50;99.90;;;;;;4901774;29;20285;-94
2021/12/03 04:18:43;;;;;;;16.80;9.10;;;-0.40;99.90;;;;;;4902149;29;20187;-92
2021/12/03 04:21:09;;;;;;;12.93;8.40;;;-0.40;99.90;;;;;;4905119;29;20256;-94
2021/12/03 04:23:35;;;;;;;14.63;8.70;;;-0.40;99.90;;;;;;4905398;29;20286;-94
2021/12/03 04:26:01;;;;;;;15.27;8.90;;;-0.40;99.90;;;;;;4905380;29;20585;-94
2021/12/03 04:28:29;;;;;;;18.80;9.10;;;-0.50;99.90;;;;;;4905275;29;20704;-95
2021/12/03 04:30:55;;;;;;;15.47;8.73;;;-0.50;99.90;;;;;;4905004;29;20226;-93
2021/12/03 04:33:21;;;;;;;15.37;9.27;;;-0.50;99.90;;;;;;4905183;29;20202;-94
2021/12/03 04:35:47;;;;;;;16.50;10.13;;;-0.50;99.90;;;;;;4905111;29;20629;-93
2021/12/03 04:38:13;;;;;;;19.67;8.80;;;-0.40;99.90;;;;;;4905176;29;20273;-94
2021/12/03 04:40:41;;;;;;;14.97;9.83;;;-0.40;99.90;;;;;;4905080;29;20191;-94
2021/12/03 04:43:07;;;;;;;18.27;9.50;;;-0.40;99.90;;;;;;4905110;29;20202;-95
2021/12/03 04:45:33;;;;;;;15.43;9.47;;;-0.40;99.90;;;;;;4904775;29;20247;-94
2021/12/03 04:48:03;;;;;;;19.07;10.20;;;-0.40;99.90;;;;;;4905488;29;20599;-94
2021/12/03 04:50:32;;;;;;;18.40;10.53;;;-0.40;99.90;;;;;;4904778;29;20236;-95
2021/12/03 04:52:59;;;;;;;17.97;10.43;;;-0.40;99.90;;;;;;4905138;29;20194;-94
2021/12/03 04:55:26;;;;;;;16.33;9.67;;;-0.40;99.90;;;;;;4904745;29;20193;-94
2021/12/03 04:57:55;;;;;;;15.63;10.07;;;-0.30;99.90;;;;;;4904721;29;20285;-94
2021/12/03 05:00:30;;;;;;;15.37;9.37;;;-0.40;99.90;;;;;;4904420;29;20188;-94
2021/12/03 05:02:57;;;;;;;16.80;10.43;;;-0.40;99.90;;;;;;4904800;29;20265;-94
2021/12/03 05:05:25;;;;;;;16.80;10.10;;;-0.40;99.90;;;;;;4904779;29;20191;-94
2021/12/03 05:07:57;;;;;;;19.83;10.70;;;-0.40;99.90;;;;;;4904582;29;20516;-95
2021/12/03 05:10:28;;;;;;;19.50;11.50;;;-0.30;99.90;;;;;;4904464;29;20277;-95
2021/12/03 05:13:00;;;;;;;17.90;10.37;;;-0.30;99.90;;;;;;4904590;29;20199;-95
2021/12/03 05:15:26;;;;;;;17.17;10.37;;;-0.40;99.90;;;;;;4904329;29;20206;-94
2021/12/03 05:17:56;;;;;;;16.97;10.23;;;-0.30;99.90;;;;;;4904638;29;20595;-94
2021/12/03 05:20:22;;;;;;;16.93;9.83;;;-0.30;99.90;;;;;;4904381;29;20225;-95
2021/12/03 05:22:47;;;;;;;18.30;10.63;;;-0.30;99.90;;;;;;4904369;29;20229;-94
2021/12/03 05:25:13;;;;;;;18.10;10.07;;;-0.40;99.90;;;;;;4904294;29;20194;-94
2021/12/03 05:27:48;;;;;;;15.23;9.70;;;-0.30;99.90;;;;;;4904224;29;20278;-94
2021/12/03 05:30:15;;;;;;;18.20;9.80;;;-0.30;99.90;;;;;;4903363;29;20203;-94
2021/12/03 05:32:40;;;;;;;17.97;10.67;;;-0.40;99.90;;;;;;4903971;29;20191;-95
2021/12/03 05:35:08;;;;;;;15.53;9.97;;;-0.30;99.90;;;;;;4904063;29;20208;-95
2021/12/03 05:38:05;;;;;;;18.47;10.20;;;-0.30;99.90;;;;;;4904074;29;20547;-94
2021/12/03 05:40:31;;;;;;;15.93;10.37;;;-0.30;99.90;;;;;;4903933;29;20275;-95
2021/12/03 05:42:57;;;;;;;17.67;9.97;;;-0.30;99.90;;;;;;4904049;29;20297;-94
2021/12/03 05:45:27;;;;;;;23.10;10.73;;;-0.30;99.90;;;;;;4903530;29;20613;-94
2021/12/03 05:47:54;;;;;;;15.83;10.27;;;-0.30;99.90;;;;;;4903838;29;20194;-95
2021/12/03 05:50:20;;;;;;;18.03;10.97;;;-0.30;99.90;;;;;;4903934;29;20258;-95
2021/12/03 05:52:48;;;;;;;16.93;9.67;;;-0.30;99.90;;;;;;4903976;29;20201;-94
2021/12/03 05:55:14;;;;;;;18.87;10.97;;;-0.30;99.90;;;;;;4904062;29;20237;-94
2021/12/03 05:57:47;;;;;;;17.80;10.20;;;-0.20;99.90;;;;;;4903968;29;20197;-94
2021/12/03 06:00:19;;;;;;;19.73;10.80;;;-0.20;99.90;;;;;;4920592;29;20182;-93
2021/12/03 06:02:45;;;;;;;18.97;9.93;;;-0.30;99.90;;;;;;4903828;29;20194;-94
2021/12/03 06:05:11;;;;;;;18.60;10.03;;;-0.20;99.90;;;;;;4903788;29;20193;-94
2021/12/03 06:07:51;;;;;;;15.83;10.10;;;-0.20;99.90;;;;;;4903624;29;20197;-94
2021/12/03 06:10:18;;;;;;;17.77;10.13;;;-0.20;99.90;;;;;;4903505;29;20632;-94
2021/12/03 06:12:44;;;;;;;23.10;10.63;;;-0.20;99.90;;;;;;4903535;29;20205;-94
2021/12/03 06:15:10;;;;;;;20.17;10.63;;;-0.20;99.90;;;;;;4903569;29;20194;-94
2021/12/03 06:17:37;;;;;;;19.70;10.03;;;-0.20;99.90;;;;;;4903398;29;20194;-94
2021/12/03 06:20:05;;;;;;;18.03;10.43;;;-0.20;99.90;;;;;;4920141;29;20186;-94
2021/12/03 06:22:30;;;;;;;20.57;10.73;;;-0.10;99.90;;;;;;4903374;29;20223;-94
2021/12/03 06:24:56;;;;;;;20.10;10.47;;;-0.10;99.90;;;;;;4903560;29;20218;-93
2021/12/03 06:27:25;;;;;;;15.80;9.97;;;0.00;99.90;;;;;;4903496;29;20218;-95
2021/12/03 06:29:52;;;;;;;15.43;10.00;;;0.00;99.90;;;;;;4903210;29;20246;-95
2021/12/03 06:32:18;;;;;;;17.83;10.03;;;0.00;99.90;;;;;;4903193;29;20225;-95
2021/12/03 06:34:44;;;;;;;18.07;10.37;;;0.00;99.90;;;;;;4903165;29;20257;-94
2021/12/03 06:37:09;;;;;;;17.07;10.90;;;0.00;99.90;;;;;;4902913;29;20630;-94
2021/12/03 06:39:36;;;;;;;17.50;10.97;;;0.10;99.90;;;;;;4902966;29;20294;-93
2021/12/03 06:42:02;;;;;;;21.30;11.30;;;0.10;99.90;;;;;;4902667;29;20186;-94
2021/12/03 06:44:28;;;;;;;17.13;10.07;;;0.10;99.90;;;;;;4903252;29;20226;-93
2021/12/03 06:46:54;;;;;;;22.77;11.73;;;0.10;99.90;;;;;;4902844;29;20194;-93
2021/12/03 06:49:21;;;;;;;17.93;10.50;;;0.10;99.90;;;;;;4902801;29;20241;-92
2021/12/03 06:51:50;;;;;;;16.83;10.60;;;0.10;99.90;;;;;;4903492;29;20222;-94
2021/12/03 08:03:15;;;;;;;15.57;9.97;;;0.60;99.90;;;;;;4965109;23;20316;-94
2021/12/03 08:05:41;;;;;;;16.73;10.70;;;0.50;99.90;;;;;;4926373;29;20278;-94
2021/12/03 08:08:07;;;;;;;18.43;11.03;;;0.50;99.90;;;;;;4925948;29;20218;-95
2021/12/03 08:10:37;;;;;;;17.00;10.33;;;0.60;99.90;;;;;;4925457;29;20256;-95
2021/12/03 08:13:09;;;;;;;16.77;10.13;;;0.60;99.90;;;;;;4926216;29;20229;-96
2021/12/03 08:15:40;;;;;;;16.07;10.13;;;0.70;99.90;;;;;;4925244;29;20190;-96
2021/12/03 08:18:17;;;;;;;16.50;9.67;;;0.70;99.90;;;;;;4925641;29;20206;-96
2021/12/03 08:20:47;;;;;;;16.23;9.73;;;0.70;99.90;;;;;;4924918;29;20201;-96
2021/12/03 08:23:13;;;;;;;14.93;9.90;;;0.80;99.90;;;;;;4926267;29;20216;-95
2021/12/03 08:25:40;;;;;;;15.70;9.60;;;0.80;99.90;;;;;;4941844;29;20637;-94
2021/12/03 08:28:05;;;;;;;15.87;10.27;;;0.90;99.90;;;;;;4925104;29;20253;-94
2021/12/03 08:30:40;;;;;;;14.83;9.43;;;0.90;99.90;;;;;;4925954;29;20677;-95
2021/12/03 08:33:06;;;;;;;18.13;9.63;;;0.90;99.90;;;;;;4926312;29;20188;-94
2021/12/03 08:35:31;;;;;;;14.60;9.33;;;1.00;99.90;;;;;;4925820;29;20528;-93
2021/12/03 08:37:58;;;;;;;15.10;9.13;;;1.00;99.90;;;;;;4925553;29;20360;-94
2021/12/03 08:40:25;;;;;;;18.30;9.80;;;1.10;99.90;;;;;;4924626;29;20306;-93
2021/12/03 08:42:53;;;;;;;12.40;8.37;;;1.10;99.90;;;;;;4927713;29;20205;-95
2021/12/03 08:45:20;;;;;;;14.83;8.57;;;1.20;99.90;;;;;;4930750;29;20212;-93
2021/12/03 08:47:52;;;;;;;11.57;8.03;;;1.20;99.90;;;;;;4925412;29;20200;-93
2021/12/03 08:50:46;;;;;;;14.43;8.90;;;1.20;99.90;;;;;;4925595;29;20179;-94
2021/12/03 08:55:45;;;;;;;14.73;8.27;;;1.20;99.90;;;;;;4941996;29;20169;-95
2021/12/03 08:58:13;;;;;;;12.93;8.00;;;1.20;99.90;;;;;;4926267;29;20242;-93
2021/12/03 09:00:41;;;;;;;15.10;8.73;;;1.20;99.90;;;;;;4925936;29;20228;-93
2021/12/03 09:03:07;;;;;;;16.73;9.30;;;1.30;99.90;;;;;;4924999;29;20232;-94
2021/12/03 09:05:36;;;;;;;13.57;7.50;;;1.30;99.90;;;;;;4923887;29;20591;-94
2021/12/03 09:08:02;;;;;;;14.97;7.83;;;1.30;99.90;;;;;;4923301;29;20237;-94
2021/12/03 09:10:30;;;;;;;13.67;7.73;;;1.30;99.90;;;;;;4924842;29;20186;-94
2021/12/03 09:12:59;;;;;;;12.03;7.63;;;1.20;99.90;;;;;;4923783;29;20202;-95
2021/12/03 09:15:44;;;;;;;13.10;6.87;;;1.30;99.90;;;;;;4923521;29;20186;-92
2021/12/03 09:21:07;;;;;;;15.07;7.27;;;1.40;99.90;;;;;;4922642;29;20194;-94
2021/12/03 09:26:20;;;;;;;14.80;6.93;;;1.30;99.90;;;;;;4940669;29;20182;-93
2021/12/03 09:28:52;;;;;;;11.07;6.27;;;1.30;99.90;;;;;;4923749;29;20185;-93
2021/12/03 09:31:18;;;;;;;11.23;6.60;;;1.40;99.90;;;;;;4923119;29;20223;-92
2021/12/03 09:33:51;;;;;;;15.30;6.73;;;1.40;99.90;;;;;;4923144;29;20174;-93
2021/12/03 09:36:16;;;;;;;13.43;6.93;;;1.50;99.90;;;;;;4923469;29;20180;-93
2021/12/03 09:38:43;;;;;;;14.07;6.90;;;1.60;99.90;;;;;;4923451;29;20190;-93
2021/12/03 09:41:16;;;;;;;11.57;6.00;;;1.60;99.90;;;;;;4923267;29;20277;-93
2021/12/03 09:43:48;;;;;;;9.77;5.97;;;1.60;99.90;;;;;;4922709;29;20202;-93
2021/12/03 09:46:18;;;;;;;10.97;6.40;;;1.60;99.90;;;;;;4923390;29;20182;-93
2021/12/03 09:51:20;;;;;;;12.77;7.50;;;1.60;99.90;;;;;;4939821;29;20304;-93
2021/12/03 09:54:14;;;;;;;14.73;7.27;;;1.70;99.90;;;;;;4922836;29;20251;-91
2021/12/03 09:56:33;;;;;;;13.37;6.70;;;1.70;99.90;;;;;;4939056;29;20186;-93
2021/12/03 10:05:09;;;;;;;10.47;6.63;;;1.70;99.90;;;;;;4939440;29;20200;-92
2021/12/03 10:13:17;;;;;;;16.10;7.67;;;1.60;99.90;;;;;;4939319;29;20586;-91
2021/12/03 10:24:41;;;;;;;12.23;6.97;;;1.80;99.90;;;;;;4920508;29;20309;-93
2021/12/03 10:30:50;;;;;;;12.10;7.17;;;1.90;99.90;;;;;;4938829;29;20190;-93
2021/12/03 10:41:23;;;;;;;15.20;7.93;;;1.80;99.90;;;;;;4939005;29;20633;-92
2021/12/03 10:46:40;;;;;;;12.37;7.20;;;1.90;99.90;;;;;;4938660;29;20181;-93
2021/12/03 11:06:37;;;;;;;12.77;7.60;;;1.90;99.90;;;;;;4938641;29;20241;-94
2021/12/03 11:34:24;;;;;;;14.20;8.40;;;2.10;99.90;;;;;;4939209;29;20182;-93
2021/12/03 14:56:44;;;;;;;7.70;4.20;;;2.70;99.90;;;;;;4939548;29;20181;-90
2021/12/03 14:59:36;;;;;;;7.47;4.30;;;2.70;99.90;;;;;;4921626;29;20281;-89
2021/12/03 15:02:25;;;;;;;9.33;4.03;;;2.70;99.90;;;;;;4921432;29;20527;-90
2021/12/03 15:05:17;;;;;;;8.83;4.07;;;2.70;99.90;;;;;;4937987;29;20230;-90
2021/12/03 15:07:51;;;;;;;8.33;4.70;;;2.70;99.90;;;;;;4921496;29;20576;-90
2021/12/03 15:14:26;;;;;;;8.80;4.77;;;2.70;99.90;;;;;;4914646;29;20200;-91
2021/12/03 15:32:15;;;;;;;9.40;3.70;;;2.70;99.90;;;;;;4939991;29;20654;-91
2021/12/03 15:40:33;;;;;;;8.17;4.00;;;2.70;99.90;;;;;;4910675;29;20197;-91
2021/12/03 15:57:12;;;;;;;6.50;3.77;;;2.60;99.90;;;;;;4939015;29;20533;-90
2021/12/03 16:10:27;;;;;;;11.30;4.17;;;2.60;99.90;;;;;;4937754;29;20217;-91
2021/12/03 16:23:42;;;;;;;6.97;3.43;;;2.60;99.90;;;;;;4941839;29;20269;-91
2021/12/03 16:52:49;;;;;;;7.97;3.00;;;2.60;99.90;;;;;;4941328;29;20559;-92
2021/12/03 16:55:16;;;;;;;8.53;3.17;;;2.60;99.90;;;;;;4924239;29;20229;-92
2021/12/03 16:57:43;;;;;;;6.53;3.60;;;2.70;99.90;;;;;;4924000;29;20335;-92
2021/12/03 17:00:35;;;;;;;7.13;3.40;;;2.70;99.90;;;;;;4923862;29;20533;-91
2021/12/03 17:03:09;;;;;;;7.63;2.87;;;2.70;99.90;;;;;;4923614;29;20190;-92
2021/12/03 17:45:52;;;;;;;6.57;3.40;;;2.70;99.90;;;;;;4940258;29;20208;-90
2021/12/03 17:53:26;;;;;;;4.93;3.10;;;2.60;99.90;;;;;;4939520;29;20236;-91
2021/12/03 17:58:29;;;;;;;6.13;3.27;;;2.60;99.90;;;;;;4939755;29;20211;-90
2021/12/03 18:01:07;;;;;;;6.17;3.57;;;2.60;99.90;;;;;;4922584;29;20196;-90
2021/12/03 18:45:19;;;;;;;6.53;3.90;;;2.70;99.90;;;;;;4901212;29;20189;-90
2021/12/03 18:51:02;;;;;;;7.27;3.90;;;2.80;99.90;;;;;;4873837;29;20193;-90
2021/12/03 18:55:59;;;;;;;5.50;3.67;;;2.80;99.90;;;;;;4918966;29;20200;-91
2021/12/03 18:58:29;;;;;;;6.77;4.00;;;2.70;99.90;;;;;;4902579;29;20191;-90
2021/12/03 19:00:57;;;;;;;7.33;4.23;;;2.80;99.90;;;;;;4897890;29;20197;-89
2021/12/03 19:03:32;;;;;;;4.70;3.47;;;2.80;99.90;;;;;;4901672;29;20249;-90
2021/12/03 19:13:48;;;;;;;9.23;4.40;;;2.90;99.90;;;;;;4919140;29;20566;-91
2021/12/03 19:16:16;;;;;;;6.20;3.80;;;2.90;99.90;;;;;;4902579;29;20578;-89
2021/12/03 19:18:53;;;;;;;5.97;4.07;;;2.80;99.90;;;;;;4903105;29;20234;-90
2021/12/03 19:21:25;;;;;;;5.73;4.30;;;2.80;99.90;;;;;;4902719;29;20188;-91
2021/12/03 19:24:00;;;;;;;7.93;4.20;;;2.80;99.90;;;;;;4902895;29;20203;-91
2021/12/03 19:26:27;;;;;;;7.30;4.17;;;2.80;99.90;;;;;;4902651;29;20190;-90
2021/12/03 19:29:04;;;;;;;7.10;4.53;;;2.90;99.90;;;;;;4902685;29;20190;-91
2021/12/03 19:31:31;;;;;;;6.00;4.47;;;2.80;99.90;;;;;;4902587;29;20309;-92
2021/12/03 19:33:57;;;;;;;6.33;4.50;;;2.90;99.90;;;;;;4902467;29;20189;-92
2021/12/03 19:36:25;;;;;;;8.13;5.00;;;2.80;99.90;;;;;;4903057;29;20205;-91
2021/12/03 19:38:55;;;;;;;6.30;4.43;;;2.80;99.90;;;;;;4902916;29;20283;-91
2021/12/03 19:43:54;;;;;;;7.63;4.47;;;2.80;99.90;;;;;;4919416;29;20255;-92
2021/12/03 19:46:27;;;;;;;7.07;4.77;;;2.70;99.90;;;;;;4902325;29;20638;-92
2021/12/03 19:49:10;;;;;;;7.53;4.93;;;2.80;99.90;;;;;;4902014;29;20190;-91
2021/12/03 19:51:43;;;;;;;6.87;4.70;;;2.70;99.90;;;;;;4905752;29;20247;-91
2021/12/03 19:54:08;;;;;;;9.53;4.53;;;2.80;99.90;;;;;;4922966;29;20253;-92
2021/12/03 19:56:35;;;;;;;8.37;5.10;;;2.80;99.90;;;;;;4905975;29;20186;-92
2021/12/03 19:59:03;;;;;;;8.07;5.10;;;2.80;99.90;;;;;;4905889;29;20199;-92
2021/12/03 20:01:32;;;;;;;7.60;4.70;;;2.70;99.90;;;;;;4906063;29;20223;-91
2021/12/03 20:03:58;;;;;;;8.60;5.23;;;2.70;99.90;;;;;;4932147;29;20675;-91
2021/12/03 20:06:24;;;;;;;7.20;5.40;;;2.70;99.90;;;;;;4924669;29;20284;-91
2021/12/03 20:08:53;;;;;;;7.57;5.00;;;2.70;99.90;;;;;;4924738;29;20190;-92
2021/12/03 20:11:21;;;;;;;6.57;4.87;;;2.70;99.90;;;;;;4924941;29;20232;-90
2021/12/03 20:13:50;;;;;;;6.40;4.93;;;2.70;99.90;;;;;;4924224;29;20612;-92
2021/12/03 20:18:54;;;;;;;6.23;5.33;;;2.70;99.90;;;;;;4941495;29;20181;-91
2021/12/03 20:21:26;;;;;;;7.70;5.43;;;2.70;99.90;;;;;;4924678;29;20518;-93
2021/12/03 20:24:18;;;;;;;8.67;5.50;;;2.80;99.90;;;;;;4924555;29;20230;-90
2021/12/03 20:26:51;;;;;;;7.47;5.30;;;2.80;99.90;;;;;;4905562;29;20622;-93
2021/12/03 20:29:21;;;;;;;8.43;5.53;;;2.70;99.90;;;;;;4914234;29;20612;-93
2021/12/03 20:31:59;;;;;;;7.47;5.47;;;2.70;99.90;;;;;;4924501;29;20222;-92
2021/12/03 20:37:16;;;;;;;7.80;5.43;;;2.70;99.90;;;;;;4942199;29;20245;-91
2021/12/03 20:39:45;;;;;;;7.93;5.63;;;2.70;99.90;;;;;;4925125;29;20288;-93
2021/12/03 20:44:55;;;;;;;9.83;6.10;;;2.80;99.90;;;;;;4941735;29;20222;-91
2021/12/03 20:47:39;;;;;;;7.90;5.90;;;2.80;99.90;;;;;;4923794;29;20620;-90
2021/12/03 21:09:27;;;;;;;13.57;6.53;;;2.80;99.90;;;;;;4936832;29;20213;-92
2021/12/03 21:11:58;;;;;;;9.27;5.87;;;2.80;99.90;;;;;;4922538;29;20229;-91
2021/12/03 21:14:29;;;;;;;12.40;6.03;;;2.80;99.90;;;;;;4922174;29;20265;-92
2021/12/03 21:19:47;;;;;;;9.27;5.90;;;2.80;99.90;;;;;;4917394;29;20198;-91
2021/12/03 21:22:15;;;;;;;9.90;6.20;;;2.80;99.90;;;;;;4922465;29;20194;-91
2021/12/03 21:24:48;;;;;;;5.80;5.03;;;2.80;99.90;;;;;;4923484;29;20625;-90
2021/12/03 21:27:21;;;;;;;8.97;5.63;;;2.80;99.90;;;;;;4922817;29;20204;-91
2021/12/03 21:32:39;;;;;;;8.57;5.67;;;2.80;99.90;;;;;;4939112;29;20217;-91
2021/12/03 21:41:00;;;;;;;7.90;6.03;;;2.80;99.90;;;;;;4939294;29;20186;-91
2021/12/03 21:43:28;;;;;;;9.00;6.07;;;2.80;99.90;;;;;;4922185;29;20205;-92
2021/12/03 21:45:54;;;;;;;7.87;5.87;;;2.90;99.90;;;;;;4922179;29;20209;-91
2021/12/03 21:48:20;;;;;;;8.60;5.90;;;2.80;99.90;;;;;;4921836;29;20637;-92
2021/12/03 21:50:59;;;;;;;8.43;5.60;;;2.90;99.90;;;;;;4922499;29;20203;-90
2021/12/03 21:53:24;;;;;;;9.57;6.13;;;2.90;99.90;;;;;;4921856;29;20228;-91
2021/12/03 21:55:50;;;;;;;8.97;6.00;;;2.90;99.90;;;;;;4922166;29;20199;-91
2021/12/03 21:58:16;;;;;;;12.77;5.90;;;2.80;99.90;;;;;;4921269;29;20241;-92
2021/12/03 22:00:43;;;;;;;9.83;6.07;;;2.90;99.90;;;;;;4922219;29;20202;-91
2021/12/03 22:03:11;;;;;;;7.67;5.40;;;2.90;99.90;;;;;;4922719;29;20301;-91
2021/12/03 22:05:37;;;;;;;8.53;6.07;;;2.90;99.90;;;;;;4922265;29;20249;-92
2021/12/03 22:08:04;;;;;;;7.23;5.07;;;2.90;99.90;;;;;;4923658;29;20217;-91
2021/12/03 22:10:42;;;;;;;7.07;5.00;;;2.90;99.90;;;;;;4922273;29;20292;-92
2021/12/03 22:13:08;;;;;;;7.70;5.50;;;2.90;99.90;;;;;;4918489;29;20230;-90
2021/12/03 22:15:35;;;;;;;6.07;4.97;;;2.90;99.90;;;;;;4921949;29;20277;-92
2021/12/03 22:18:05;;;;;;;7.30;5.33;;;2.90;99.90;;;;;;4920945;29;20269;-92
2021/12/03 22:20:32;;;;;;;9.13;5.30;;;2.90;99.90;;;;;;4921594;29;20236;-91
2021/12/03 22:22:57;;;;;;;9.03;5.60;;;2.90;99.90;;;;;;4921840;29;20339;-93
2021/12/03 22:25:24;;;;;;;6.87;5.53;;;3.00;99.90;;;;;;4922382;29;20202;-91
2021/12/03 22:27:49;;;;;;;6.63;5.30;;;3.00;99.90;;;;;;4920156;29;20202;-90
2021/12/03 22:30:15;;;;;;;8.03;5.23;;;3.00;99.90;;;;;;4921271;29;20584;-90
2021/12/03 22:32:42;;;;;;;9.00;5.20;;;2.90;99.90;;;;;;4921183;29;20297;-91
2021/12/03 22:35:08;;;;;;;6.73;5.23;;;2.90;99.90;;;;;;4922790;29;20664;-91
2021/12/03 22:37:35;;;;;;;6.80;4.77;;;3.00;99.90;;;;;;4920943;29;20202;-90
2021/12/03 22:40:05;;;;;;;9.43;5.63;;;3.00;99.90;;;;;;4921474;29;20205;-90
2021/12/03 22:42:52;;;;;;;8.37;5.13;;;3.00;99.90;;;;;;4921282;29;20664;-90
2021/12/03 22:45:23;;;;;;;8.47;5.40;;;2.90;99.90;;;;;;4921077;29;20646;-92
2021/12/03 22:47:56;;;;;;;9.33;5.33;;;3.00;99.90;;;;;;4920611;29;20708;-89
2021/12/03 22:50:29;;;;;;;6.17;5.27;;;3.00;99.90;;;;;;4921268;29;20197;-90
2021/12/03 22:53:01;;;;;;;7.63;4.80;;;3.00;99.90;;;;;;4921040;29;20240;-90
2021/12/03 22:55:28;;;;;;;8.57;5.27;;;3.00;99.90;;;;;;4922075;29;20198;-91
2021/12/03 22:57:54;;;;;;;8.80;5.13;;;3.00;99.90;;;;;;4921498;29;20216;-90
2021/12/03 23:03:06;;;;;;;8.73;4.90;;;3.00;99.90;;;;;;5293315;23;20245;-96
2021/12/03 23:05:32;;;;;;;5.30;4.53;;;3.00;99.90;;;;;;4922029;29;20249;-96
2021/12/03 23:07:58;;;;;;;6.97;4.80;;;2.90;99.90;;;;;;4922796;29;20612;-96
2021/12/03 23:10:23;;;;;;;7.43;4.73;;;3.00;99.90;;;;;;4922494;29;20193;-96
2021/12/03 23:12:49;;;;;;;8.80;5.33;;;3.00;99.90;;;;;;4923075;29;20221;-96
2021/12/03 23:15:15;;;;;;;9.37;5.37;;;3.00;99.90;;;;;;4921739;29;20621;-96
2021/12/03 23:17:41;;;;;;;6.37;4.63;;;3.00;99.90;;;;;;4923160;29;20193;-95
2021/12/03 23:20:07;;;;;;;8.03;4.83;;;3.00;99.90;;;;;;4923898;29;20213;-96
2021/12/03 23:22:33;;;;;;;9.07;4.80;;;3.00;99.90;;;;;;4923270;29;20186;-96
2021/12/03 23:25:00;;;;;;;7.33;4.50;;;3.00;99.90;;;;;;4923352;29;20199;-96
2021/12/03 23:27:26;;;;;;;5.77;4.67;;;3.00;99.90;;;;;;4922272;29;20202;-96
2021/12/03 23:29:53;;;;;;;7.93;4.60;;;3.00;99.90;;;;;;4922205;29;20193;-96
2021/12/03 23:32:22;;;;;;;6.33;4.80;;;3.00;99.90;;;;;;4921526;29;20218;-95
2021/12/03 23:34:54;;;;;;;7.57;4.67;;;3.00;99.90;;;;;;4921910;29;20621;-95
2021/12/03 23:37:19;;;;;;;7.97;5.20;;;3.00;99.90;;;;;;4922064;29;20216;-96
2021/12/03 23:39:45;;;;;;;8.50;5.00;;;3.00;99.90;;;;;;4922009;29;20190;-96
2021/12/03 23:42:11;;;;;;;10.97;4.90;;;3.10;99.90;;;;;;4922324;29;20197;-96
2021/12/03 23:44:51;;;;;;;7.53;4.70;;;3.00;99.90;;;;;;4922439;29;20249;-95
2021/12/03 23:47:17;;;;;;;5.73;4.77;;;3.10;99.90;;;;;;4922523;29;20204;-96
2021/12/03 23:49:42;;;;;;;8.17;5.10;;;3.00;99.90;;;;;;4922473;29;20186;-96
2021/12/03 23:52:08;;;;;;;8.50;4.83;;;3.00;99.90;;;;;;4922925;29;20221;-95
2021/12/03 23:54:40;;;;;;;9.30;5.23;;;3.00;99.90;;;;;;4921954;29;20186;-95
2021/12/03 23:57:08;;;;;;;8.20;5.20;;;3.00;99.90;;;;;;4921535;29;20587;-93
2021/12/03 23:59:35;;;;;;;7.10;5.20;;;3.00;99.90;;;;;;4921989;29;20281;-96
